createdAt,value
2019-04-16T00:00:52.041Z,9.29
2019-04-16T00:01:52.071Z,9.21
2019-04-16T00:02:52.229Z,9.29
2019-04-16T00:03:54.036Z,9.24
2019-04-16T00:04:53.651Z,9.28
2019-04-16T00:05:52.180Z,9.28
2019-04-16T00:06:52.207Z,9.26
2019-04-16T00:07:52.240Z,9.33
2019-04-16T00:08:54.129Z,9.50
2019-04-16T00:09:52.294Z,9.46
2019-04-16T00:10:52.322Z,9.47
2019-04-16T00:11:52.349Z,9.40
2019-04-16T00:12:52.378Z,9.54
2019-04-16T00:13:52.405Z,9.66
2019-04-16T00:14:52.433Z,9.65
2019-04-16T00:15:52.463Z,9.57
2019-04-16T00:16:52.490Z,9.43
2019-04-16T00:17:52.519Z,9.35
2019-04-16T00:18:57.909Z,9.31
2019-04-16T00:19:52.575Z,9.21
2019-04-16T00:20:52.603Z,9.08
2019-04-16T00:21:52.632Z,8.98
2019-04-16T00:22:52.664Z,8.80
2019-04-16T00:23:52.691Z,8.68
2019-04-16T00:24:52.718Z,8.65
2019-04-16T00:25:55.594Z,8.70
2019-04-16T00:26:57.836Z,8.76
2019-04-16T00:27:52.801Z,8.68
2019-04-16T00:28:52.830Z,8.73
2019-04-16T00:29:52.857Z,8.92
2019-04-16T00:30:52.885Z,8.77
2019-04-16T00:31:52.915Z,8.92
2019-04-16T00:32:52.943Z,8.83
2019-04-16T00:33:52.970Z,8.84
2019-04-16T00:34:52.998Z,8.89
2019-04-16T00:35:53.026Z,8.80
2019-04-16T00:36:53.081Z,8.63
2019-04-16T00:37:53.082Z,8.65
2019-04-16T00:38:54.139Z,8.55
2019-04-16T00:39:55.744Z,8.48
2019-04-16T00:40:53.168Z,8.45
2019-04-16T00:41:53.198Z,8.33
2019-04-16T00:42:53.223Z,8.19
2019-04-16T00:43:53.252Z,8.20
2019-04-16T00:44:53.281Z,8.22
2019-04-16T00:45:53.307Z,8.12
2019-04-16T00:46:53.340Z,8.08
2019-04-16T00:47:53.363Z,8.10
2019-04-16T00:48:53.442Z,8.19
2019-04-16T00:49:57.563Z,8.22
2019-04-16T00:50:53.447Z,8.18
2019-04-16T00:51:53.476Z,8.19
2019-04-16T00:52:53.507Z,8.16
2019-04-16T00:53:53.533Z,8.15
2019-04-16T00:54:53.563Z,8.16
2019-04-16T00:55:53.589Z,8.15
2019-04-16T00:56:53.618Z,8.16
2019-04-16T00:57:53.646Z,8.07
2019-04-16T00:58:53.680Z,8.11
2019-04-16T00:59:56.089Z,8.19
2019-04-16T01:00:53.752Z,8.25
2019-04-16T01:01:53.756Z,8.20
2019-04-16T01:02:53.785Z,8.23
2019-04-16T01:03:53.812Z,8.29
2019-04-16T01:04:53.840Z,8.23
2019-04-16T01:05:53.867Z,8.20
2019-04-16T01:06:54.225Z,8.19
2019-04-16T01:07:53.948Z,8.19
2019-04-16T01:08:55.195Z,8.15
2019-04-16T01:09:53.981Z,8.19
2019-04-16T01:10:54.009Z,8.08
2019-04-16T01:11:54.058Z,8.05
2019-04-16T01:12:54.087Z,8.10
2019-04-16T01:13:55.731Z,8.10
2019-04-16T01:14:58.863Z,8.07
2019-04-16T01:15:54.171Z,8.02
2019-04-16T01:16:54.180Z,7.97
2019-04-16T01:17:54.202Z,7.89
2019-04-16T01:18:54.230Z,7.95
2019-04-16T01:19:54.258Z,7.92
2019-04-16T01:20:54.287Z,7.92
2019-04-16T01:21:54.314Z,7.85
2019-04-16T01:22:54.341Z,7.71
2019-04-16T01:23:54.369Z,7.79
2019-04-16T01:24:54.398Z,7.74
2019-04-16T01:25:55.532Z,7.68
2019-04-16T01:26:55.425Z,7.79
2019-04-16T01:27:54.494Z,7.63
2019-04-16T01:28:54.508Z,7.67
2019-04-16T01:29:54.536Z,7.57
2019-04-16T01:30:54.567Z,7.58
2019-04-16T01:31:54.591Z,7.60
2019-04-16T01:32:54.619Z,7.48
2019-04-16T01:33:54.647Z,7.49
2019-04-16T01:34:54.698Z,7.49
2019-04-16T01:35:54.825Z,7.45
2019-04-16T01:36:54.997Z,7.48
2019-04-16T01:37:56.807Z,7.40
2019-04-16T01:39:54.836Z,7.43
2019-04-16T01:40:54.865Z,7.40
2019-04-16T01:41:54.889Z,7.35
2019-04-16T01:42:55.312Z,7.35
2019-04-16T01:44:59.371Z,7.37
2019-04-16T01:45:55.309Z,7.43
2019-04-16T01:46:55.034Z,7.35
2019-04-16T01:47:55.259Z,7.35
2019-04-16T01:49:55.117Z,7.45
2019-04-16T01:50:55.116Z,7.48
2019-04-16T01:51:55.347Z,7.61
2019-04-16T01:52:55.174Z,7.49
2019-04-16T01:53:55.202Z,7.60
2019-04-16T01:54:55.683Z,7.45
2019-04-16T01:55:56.961Z,7.50
2019-04-16T01:56:59.486Z,7.43
2019-04-16T01:57:55.311Z,7.49
2019-04-16T01:58:55.361Z,7.40
2019-04-16T01:59:55.366Z,7.31
2019-04-16T02:00:55.393Z,7.37
2019-04-16T02:01:55.427Z,7.32
2019-04-16T02:02:55.448Z,7.45
2019-04-16T02:03:55.476Z,7.32
2019-04-16T02:04:55.504Z,7.31
2019-04-16T02:05:55.635Z,7.28
2019-04-16T02:06:57.277Z,7.31
2019-04-16T02:07:56.328Z,7.27
2019-04-16T02:08:55.626Z,7.24
2019-04-16T02:09:55.641Z,7.13
2019-04-16T02:10:55.671Z,7.13
2019-04-16T02:11:55.708Z,7.15
2019-04-16T02:12:55.725Z,7.16
2019-04-16T02:13:55.752Z,7.12
2019-04-16T02:14:55.779Z,7.16
2019-04-16T02:15:55.809Z,7.24
2019-04-16T02:16:56.645Z,7.17
2019-04-16T02:17:58.857Z,7.15
2019-04-16T02:19:00.815Z,7.02
2019-04-16T02:19:55.918Z,7.13
2019-04-16T02:20:55.945Z,7.21
2019-04-16T02:21:55.971Z,7.16
2019-04-16T02:22:56.000Z,7.10
2019-04-16T02:23:56.029Z,7.09
2019-04-16T02:24:56.055Z,7.05
2019-04-16T02:25:56.082Z,7.07
2019-04-16T02:26:56.107Z,6.94
2019-04-16T02:27:57.074Z,6.88
2019-04-16T02:28:56.470Z,6.89
2019-04-16T02:29:58.581Z,6.88
2019-04-16T02:30:56.218Z,6.94
2019-04-16T02:31:56.252Z,6.87
2019-04-16T02:32:56.274Z,6.92
2019-04-16T02:33:56.301Z,6.91
2019-04-16T02:34:56.461Z,6.81
2019-04-16T02:35:56.356Z,6.92
2019-04-16T02:37:00.868Z,6.84
2019-04-16T02:37:56.417Z,6.77
2019-04-16T02:38:56.447Z,6.77
2019-04-16T02:39:56.475Z,6.81
2019-04-16T02:40:56.497Z,6.89
2019-04-16T02:41:58.090Z,6.84
2019-04-16T02:42:56.556Z,6.80
2019-04-16T02:43:56.576Z,6.74
2019-04-16T02:44:56.621Z,6.73
2019-04-16T02:45:58.402Z,6.77
2019-04-16T02:46:56.658Z,6.92
2019-04-16T02:47:56.682Z,6.91
2019-04-16T02:48:56.914Z,6.88
2019-04-16T02:49:57.957Z,6.89
2019-04-16T02:50:56.766Z,6.92
2019-04-16T02:51:56.792Z,6.88
2019-04-16T02:52:56.823Z,6.92
2019-04-16T02:53:58.761Z,6.74
2019-04-16T02:54:56.873Z,6.67
2019-04-16T02:55:56.904Z,6.66
2019-04-16T02:56:56.931Z,6.54
2019-04-16T02:58:00.275Z,6.52
2019-04-16T02:58:56.982Z,6.54
2019-04-16T02:59:57.015Z,6.51
2019-04-16T03:00:57.038Z,6.70
2019-04-16T03:01:57.061Z,6.69
2019-04-16T03:02:57.092Z,6.55
2019-04-16T03:03:57.118Z,6.69
2019-04-16T03:04:58.428Z,6.71
2019-04-16T03:06:00.709Z,6.74
2019-04-16T03:06:57.197Z,6.81
2019-04-16T03:07:57.225Z,6.84
2019-04-16T03:08:57.252Z,6.73
2019-04-16T03:10:01.483Z,6.59
2019-04-16T03:10:57.308Z,6.61
2019-04-16T03:11:57.334Z,6.64
2019-04-16T03:12:57.362Z,6.58
2019-04-16T03:13:59.368Z,6.52
2019-04-16T03:15:00.834Z,6.55
2019-04-16T03:15:57.443Z,6.66
2019-04-16T03:16:57.468Z,6.54
2019-04-16T03:17:57.494Z,6.49
2019-04-16T03:18:57.520Z,6.54
2019-04-16T03:19:57.548Z,6.52
2019-04-16T03:20:57.575Z,6.51
2019-04-16T03:21:59.176Z,6.44
2019-04-16T03:22:57.629Z,6.58
2019-04-16T03:23:57.660Z,6.44
2019-04-16T03:24:57.684Z,6.48
2019-04-16T03:25:57.709Z,6.43
2019-04-16T03:26:57.737Z,6.38
2019-04-16T03:27:57.766Z,6.44
2019-04-16T03:28:59.152Z,6.44
2019-04-16T03:30:02.999Z,6.25
2019-04-16T03:30:57.845Z,6.19
2019-04-16T03:31:59.559Z,6.09
2019-04-16T03:32:57.899Z,6.25
2019-04-16T03:33:57.934Z,6.03
2019-04-16T03:34:57.978Z,6.00
2019-04-16T03:35:58.612Z,6.04
2019-04-16T03:36:58.650Z,6.03
2019-04-16T03:37:58.032Z,6.00
2019-04-16T03:38:58.059Z,5.93
2019-04-16T03:39:58.085Z,5.89
2019-04-16T03:40:58.112Z,5.96
2019-04-16T03:41:58.141Z,5.90
2019-04-16T03:42:59.367Z,5.89
2019-04-16T03:43:58.193Z,5.85
2019-04-16T03:44:58.220Z,5.83
2019-04-16T03:45:58.246Z,5.83
2019-04-16T03:46:58.273Z,5.93
2019-04-16T03:47:58.299Z,5.86
2019-04-16T03:48:58.326Z,6.00
2019-04-16T03:49:59.470Z,6.01
2019-04-16T03:51:00.454Z,5.94
2019-04-16T03:51:58.406Z,5.96
2019-04-16T03:52:58.436Z,6.04
2019-04-16T03:53:58.461Z,6.04
2019-04-16T03:54:58.485Z,6.06
2019-04-16T03:55:59.159Z,5.99
2019-04-16T03:57:01.840Z,5.90
2019-04-16T03:57:58.566Z,5.90
2019-04-16T03:58:58.591Z,5.81
2019-04-16T04:00:00.784Z,5.75
2019-04-16T04:01:45.484Z,5.75
2019-04-16T04:02:41.217Z,5.79
2019-04-16T04:03:41.245Z,5.75
2019-04-16T04:04:41.267Z,5.83
2019-04-16T04:05:41.295Z,5.86
2019-04-16T04:06:41.324Z,5.86
2019-04-16T04:07:44.342Z,6.00
2019-04-16T04:08:41.375Z,6.06
2019-04-16T04:09:41.401Z,6.03
2019-04-16T04:10:41.427Z,6.09
2019-04-16T04:11:42.026Z,6.11
2019-04-16T04:12:42.640Z,6.17
2019-04-16T04:13:41.507Z,6.17
2019-04-16T04:14:41.534Z,6.17
2019-04-16T04:15:41.560Z,6.18
2019-04-16T04:16:41.588Z,6.17
2019-04-16T04:17:41.613Z,6.15
2019-04-16T04:18:43.182Z,6.25
2019-04-16T04:19:45.641Z,6.15
2019-04-16T04:20:41.690Z,6.18
2019-04-16T04:21:41.721Z,6.08
2019-04-16T04:22:41.746Z,6.15
2019-04-16T04:23:41.772Z,6.09
2019-04-16T04:24:41.797Z,6.09
2019-04-16T04:25:41.826Z,6.11
2019-04-16T04:26:42.413Z,6.09
2019-04-16T04:27:43.649Z,6.06
2019-04-16T04:28:41.904Z,6.12
2019-04-16T04:29:41.932Z,6.12
2019-04-16T04:30:41.957Z,6.09
2019-04-16T04:31:41.986Z,6.14
2019-04-16T04:32:42.010Z,6.11
2019-04-16T04:33:43.071Z,6.01
2019-04-16T04:34:42.064Z,5.97
2019-04-16T04:35:42.097Z,5.94
2019-04-16T04:36:42.116Z,5.81
2019-04-16T04:37:42.144Z,5.89
2019-04-16T04:38:42.170Z,5.78
2019-04-16T04:39:44.121Z,5.83
2019-04-16T04:40:44.772Z,5.79
2019-04-16T04:41:42.250Z,5.89
2019-04-16T04:42:42.278Z,5.90
2019-04-16T04:43:42.305Z,5.97
2019-04-16T04:44:42.333Z,6.06
2019-04-16T04:45:42.356Z,6.12
2019-04-16T04:46:43.178Z,6.22
2019-04-16T04:47:42.410Z,6.17
2019-04-16T04:48:42.436Z,6.25
2019-04-16T04:49:42.464Z,6.25
2019-04-16T04:50:42.491Z,6.37
2019-04-16T04:51:43.633Z,6.27
2019-04-16T04:52:43.200Z,6.28
2019-04-16T04:53:43.895Z,6.25
2019-04-16T04:54:42.597Z,6.34
2019-04-16T04:55:42.622Z,6.33
2019-04-16T04:56:42.648Z,6.41
2019-04-16T04:57:42.676Z,6.52
2019-04-16T04:58:42.703Z,6.51
2019-04-16T04:59:42.730Z,6.62
2019-04-16T05:00:42.756Z,6.66
2019-04-16T05:01:42.783Z,6.70
2019-04-16T05:02:43.804Z,6.71
2019-04-16T05:03:44.434Z,6.74
2019-04-16T05:04:42.864Z,6.74
2019-04-16T05:05:42.889Z,6.80
2019-04-16T05:06:42.916Z,6.88
2019-04-16T05:07:42.944Z,6.89
2019-04-16T05:08:42.980Z,6.91
2019-04-16T05:09:42.997Z,6.95
2019-04-16T05:10:44.049Z,6.85
2019-04-16T05:11:43.053Z,6.80
2019-04-16T05:12:43.078Z,6.52
2019-04-16T05:13:43.104Z,6.48
2019-04-16T05:14:43.133Z,6.66
2019-04-16T05:15:43.159Z,6.76
2019-04-16T05:16:43.185Z,6.88
2019-04-16T05:17:43.211Z,6.94
2019-04-16T05:18:43.239Z,7.07
2019-04-16T05:19:43.867Z,7.07
2019-04-16T05:20:46.692Z,7.13
2019-04-16T05:21:43.327Z,7.12
2019-04-16T05:22:43.353Z,7.16
2019-04-16T05:23:43.374Z,7.13
2019-04-16T05:24:43.400Z,7.21
2019-04-16T05:25:43.427Z,7.16
2019-04-16T05:26:43.454Z,7.10
2019-04-16T05:27:43.482Z,7.15
2019-04-16T05:28:45.503Z,7.15
2019-04-16T05:29:43.536Z,7.03
2019-04-16T05:30:43.562Z,7.03
2019-04-16T05:31:43.596Z,7.02
2019-04-16T05:32:43.617Z,7.15
2019-04-16T05:33:43.644Z,7.15
2019-04-16T05:34:43.675Z,7.16
2019-04-16T05:35:43.699Z,7.07
2019-04-16T05:36:47.544Z,6.99
2019-04-16T05:37:43.753Z,7.03
2019-04-16T05:38:46.895Z,6.92
2019-04-16T05:39:43.809Z,6.89
2019-04-16T05:40:43.839Z,6.88
2019-04-16T05:41:43.861Z,6.77
2019-04-16T05:42:43.895Z,6.77
2019-04-16T05:43:43.916Z,6.70
2019-04-16T05:44:43.945Z,6.74
2019-04-16T05:45:43.971Z,6.91
2019-04-16T05:46:46.647Z,6.99
2019-04-16T05:47:48.779Z,7.17
2019-04-16T05:48:44.051Z,7.23
2019-04-16T05:49:44.079Z,7.39
2019-04-16T05:50:44.106Z,7.48
2019-04-16T05:51:44.134Z,7.60
2019-04-16T05:52:44.161Z,7.64
2019-04-16T05:53:44.188Z,7.79
2019-04-16T05:54:45.277Z,7.80
2019-04-16T05:55:44.244Z,7.97
2019-04-16T05:56:44.270Z,7.87
2019-04-16T05:57:44.299Z,7.95
2019-04-16T05:58:44.325Z,7.92
2019-04-16T05:59:44.355Z,7.93
2019-04-16T06:00:44.382Z,8.02
2019-04-16T06:01:45.369Z,8.07
2019-04-16T06:02:44.456Z,8.16
2019-04-16T06:03:44.463Z,8.22
2019-04-16T06:04:44.489Z,8.23
2019-04-16T06:05:44.517Z,8.20
2019-04-16T06:06:44.546Z,8.33
2019-04-16T06:07:44.574Z,8.36
2019-04-16T06:08:44.601Z,8.43
2019-04-16T06:09:45.298Z,8.43
2019-04-16T06:10:49.675Z,8.44
2019-04-16T06:11:44.683Z,8.58
2019-04-16T06:12:44.712Z,8.62
2019-04-16T06:13:45.248Z,8.68
2019-04-16T06:14:46.451Z,8.66
2019-04-16T06:15:44.794Z,8.68
2019-04-16T06:16:44.823Z,8.74
2019-04-16T06:17:44.927Z,8.68
2019-04-16T06:18:44.878Z,8.84
2019-04-16T06:19:46.829Z,8.92
2019-04-16T06:20:44.933Z,8.91
2019-04-16T06:21:44.963Z,9.08
2019-04-16T06:22:44.990Z,9.18
2019-04-16T06:23:48.039Z,9.15
2019-04-16T06:24:45.046Z,9.21
2019-04-16T06:25:45.074Z,9.23
2019-04-16T06:26:47.411Z,9.29
2019-04-16T06:27:45.132Z,9.28
2019-04-16T06:28:45.158Z,9.21
2019-04-16T06:29:47.062Z,9.31
2019-04-16T06:30:45.217Z,9.47
2019-04-16T06:31:45.243Z,9.51
2019-04-16T06:32:45.270Z,9.53
2019-04-16T06:33:45.300Z,9.54
2019-04-16T06:34:45.330Z,9.60
2019-04-16T06:35:45.357Z,9.72
2019-04-16T06:36:45.383Z,9.66
2019-04-16T06:37:45.778Z,9.66
2019-04-16T06:38:45.440Z,9.72
2019-04-16T06:39:45.469Z,9.78
2019-04-16T06:40:45.497Z,9.78
2019-04-16T06:41:48.369Z,9.86
2019-04-16T06:42:45.554Z,9.87
2019-04-16T06:43:45.586Z,10.02
2019-04-16T06:44:45.612Z,10.12
2019-04-16T06:45:45.641Z,10.18
2019-04-16T06:46:45.669Z,10.27
2019-04-16T06:47:45.698Z,10.17
2019-04-16T06:48:45.980Z,10.33
2019-04-16T06:49:48.145Z,10.36
2019-04-16T06:50:45.834Z,10.40
2019-04-16T06:51:45.818Z,10.45
2019-04-16T06:52:46.157Z,10.56
2019-04-16T06:53:45.872Z,10.61
2019-04-16T06:54:45.901Z,10.66
2019-04-16T06:55:45.929Z,10.67
2019-04-16T06:56:45.956Z,10.74
2019-04-16T06:57:45.986Z,10.82
2019-04-16T06:59:46.047Z,10.89
2019-04-16T07:00:46.075Z,11.02
2019-04-16T07:01:41.796Z,10.86
2019-04-16T07:01:46.103Z,11.15
2019-04-16T07:03:01.288Z,11.22
2019-04-16T07:03:46.162Z,11.37
2019-04-16T07:04:46.190Z,11.44
2019-04-16T07:05:46.221Z,11.58
2019-04-16T07:06:46.249Z,11.83
2019-04-16T07:07:47.036Z,12.07
2019-04-16T07:08:49.784Z,12.20
2019-04-16T07:09:46.338Z,12.37
2019-04-16T07:10:46.375Z,12.59
2019-04-16T07:11:54.224Z,12.65
2019-04-16T07:12:46.506Z,12.70
2019-04-16T07:13:46.459Z,12.86
2019-04-16T07:14:48.320Z,12.74
2019-04-16T07:15:46.519Z,12.70
2019-04-16T07:16:46.548Z,12.79
2019-04-16T07:17:46.579Z,12.74
2019-04-16T07:18:46.611Z,12.82
2019-04-16T07:19:46.640Z,12.79
2019-04-16T07:20:46.736Z,12.82
2019-04-16T07:21:49.630Z,12.67
2019-04-16T07:22:46.732Z,12.71
2019-04-16T07:23:47.110Z,12.68
2019-04-16T07:24:46.853Z,12.85
2019-04-16T07:25:47.305Z,12.78
2019-04-16T07:26:48.293Z,12.90
2019-04-16T07:27:52.098Z,12.96
2019-04-16T07:28:46.915Z,12.90
2019-04-16T07:29:47.109Z,12.97
2019-04-16T07:30:47.034Z,13.19
2019-04-16T07:31:47.034Z,13.29
2019-04-16T07:32:47.038Z,13.51
2019-04-16T07:33:47.069Z,13.55
2019-04-16T07:34:47.100Z,13.55
2019-04-16T07:35:47.132Z,13.62
2019-04-16T07:36:47.161Z,13.54
2019-04-16T07:37:47.193Z,13.62
2019-04-16T07:38:47.225Z,13.63
2019-04-16T07:39:47.260Z,13.63
2019-04-16T07:40:47.287Z,13.66
2019-04-16T07:41:47.318Z,13.79
2019-04-16T07:43:47.060Z,13.75
2019-04-16T07:43:47.618Z,13.75
2019-04-16T07:44:47.411Z,13.75
2019-04-16T07:45:47.443Z,13.88
2019-04-16T07:46:47.911Z,13.97
2019-04-16T07:47:48.379Z,14.02
2019-04-16T07:48:47.537Z,14.14
2019-04-16T07:49:47.569Z,14.39
2019-04-16T07:50:47.602Z,14.65
2019-04-16T07:51:47.632Z,14.81
2019-04-16T07:52:47.665Z,14.91
2019-04-16T07:53:48.128Z,15.13
2019-04-16T07:54:47.728Z,15.23
2019-04-16T07:55:47.762Z,15.43
2019-04-16T07:56:47.846Z,15.72
2019-04-16T07:57:47.824Z,15.87
2019-04-16T07:58:47.858Z,16.00
2019-04-16T07:59:47.888Z,16.11
2019-04-16T08:00:47.921Z,16.28
2019-04-16T08:01:48.778Z,16.39
2019-04-16T08:02:50.682Z,16.53
2019-04-16T08:03:48.019Z,16.70
2019-04-16T08:04:48.052Z,16.94
2019-04-16T08:05:48.084Z,17.15
2019-04-16T08:06:48.116Z,17.22
2019-04-16T08:07:49.826Z,17.33
2019-04-16T08:08:48.184Z,17.48
2019-04-16T08:09:48.217Z,17.56
2019-04-16T08:10:48.252Z,17.81
2019-04-16T08:11:48.335Z,17.93
2019-04-16T08:12:48.369Z,18.00
2019-04-16T08:13:48.353Z,17.95
2019-04-16T08:14:48.386Z,17.92
2019-04-16T08:15:48.420Z,17.96
2019-04-16T08:16:48.453Z,17.92
2019-04-16T08:17:48.488Z,17.86
2019-04-16T08:18:48.523Z,18.14
2019-04-16T08:19:49.381Z,18.11
2019-04-16T08:21:00.526Z,18.20
2019-04-16T08:21:48.627Z,18.25
2019-04-16T08:22:48.662Z,17.89
2019-04-16T08:23:51.462Z,17.68
2019-04-16T08:24:48.729Z,17.62
2019-04-16T08:25:55.094Z,17.46
2019-04-16T08:26:48.800Z,17.46
2019-04-16T08:27:50.839Z,17.33
2019-04-16T08:28:48.870Z,17.23
2019-04-16T08:29:48.911Z,17.40
2019-04-16T08:30:48.941Z,17.48
2019-04-16T08:31:48.974Z,17.63
2019-04-16T08:32:49.775Z,17.51
2019-04-16T08:33:49.044Z,17.58
2019-04-16T08:34:49.080Z,17.74
2019-04-16T08:35:49.115Z,17.52
2019-04-16T08:36:49.149Z,17.63
2019-04-16T08:37:49.653Z,17.66
2019-04-16T08:38:49.244Z,17.58
2019-04-16T08:39:49.258Z,17.58
2019-04-16T08:40:49.291Z,17.86
2019-04-16T08:41:52.153Z,18.11
2019-04-16T08:42:49.364Z,18.18
2019-04-16T08:43:49.397Z,18.35
2019-04-16T08:44:49.433Z,18.37
2019-04-16T08:45:49.468Z,18.27
2019-04-16T08:46:49.503Z,18.36
2019-04-16T08:47:49.541Z,18.37
2019-04-16T08:48:52.499Z,18.55
2019-04-16T08:49:53.777Z,18.44
2019-04-16T08:50:49.648Z,18.72
2019-04-16T08:51:49.683Z,18.73
2019-04-16T08:52:49.716Z,18.78
2019-04-16T08:53:49.753Z,18.66
2019-04-16T08:54:51.202Z,18.72
2019-04-16T08:55:49.825Z,19.11
2019-04-16T08:56:49.864Z,19.39
2019-04-16T08:57:49.897Z,19.62
2019-04-16T08:58:49.934Z,19.37
2019-04-16T08:59:49.969Z,19.02
2019-04-16T09:00:50.005Z,18.88
2019-04-16T09:01:51.428Z,18.92
2019-04-16T09:02:50.078Z,19.18
2019-04-16T09:03:50.115Z,19.39
2019-04-16T09:04:50.152Z,19.43
2019-04-16T09:05:50.186Z,19.63
2019-04-16T09:06:50.223Z,19.69
2019-04-16T09:07:50.928Z,19.48
2019-04-16T09:08:52.902Z,19.50
2019-04-16T09:09:50.334Z,19.66
2019-04-16T09:10:50.370Z,19.81
2019-04-16T09:11:50.408Z,20.13
2019-04-16T09:13:02.319Z,20.21
2019-04-16T09:13:50.480Z,20.35
2019-04-16T09:14:54.826Z,20.24
2019-04-16T09:15:50.556Z,20.52
2019-04-16T09:16:50.590Z,20.51
2019-04-16T09:17:50.680Z,20.31
2019-04-16T09:18:50.667Z,20.08
2019-04-16T09:19:50.702Z,20.10
2019-04-16T09:20:50.739Z,20.24
2019-04-16T09:21:50.778Z,20.36
2019-04-16T09:22:53.594Z,20.28
2019-04-16T09:23:50.854Z,20.14
2019-04-16T09:24:50.892Z,20.24
2019-04-16T09:25:50.926Z,20.41
2019-04-16T09:26:52.773Z,20.50
2019-04-16T09:27:51.001Z,20.59
2019-04-16T09:28:51.041Z,20.66
2019-04-16T09:29:51.080Z,20.84
2019-04-16T09:30:51.113Z,21.19
2019-04-16T09:31:55.048Z,21.69
2019-04-16T09:32:51.190Z,22.36
2019-04-16T09:33:51.229Z,23.01
2019-04-16T09:34:51.265Z,23.80
2019-04-16T09:35:51.303Z,24.64
2019-04-16T09:36:51.341Z,24.18
2019-04-16T09:37:51.380Z,24.80
2019-04-16T09:38:51.419Z,24.80
2019-04-16T09:39:51.482Z,24.50
2019-04-16T09:40:51.499Z,24.00
2019-04-16T09:41:51.542Z,23.61
2019-04-16T09:42:51.578Z,23.42
2019-04-16T09:43:53.673Z,23.10
2019-04-16T09:44:51.658Z,23.38
2019-04-16T09:45:51.699Z,23.46
2019-04-16T09:46:59.409Z,23.57
2019-04-16T09:47:51.776Z,24.03
2019-04-16T09:48:51.816Z,24.18
2019-04-16T09:49:51.856Z,24.34
2019-04-16T09:50:51.899Z,24.27
2019-04-16T09:51:51.937Z,24.35
2019-04-16T09:52:52.433Z,24.12
2019-04-16T09:53:52.018Z,23.48
2019-04-16T09:54:52.059Z,22.76
2019-04-16T09:55:52.100Z,22.73
2019-04-16T09:56:52.140Z,23.12
2019-04-16T09:57:52.188Z,24.09
2019-04-16T09:58:52.223Z,24.65
2019-04-16T09:59:52.262Z,25.82
2019-04-16T10:00:52.304Z,26.17
2019-04-16T10:01:52.344Z,26.62
2019-04-16T10:02:55.001Z,26.33
2019-04-16T10:03:53.764Z,26.17
2019-04-16T10:04:52.469Z,27.04
2019-04-16T10:05:52.510Z,27.63
2019-04-16T10:06:52.554Z,27.82
2019-04-16T10:07:52.634Z,28.49
2019-04-16T10:08:52.649Z,28.11
2019-04-16T10:09:54.459Z,28.54
2019-04-16T10:10:52.746Z,29.58
2019-04-16T10:11:52.810Z,29.98
2019-04-16T10:12:53.039Z,27.94
2019-04-16T10:13:53.084Z,28.73
2019-04-16T10:14:53.328Z,29.43
2019-04-16T10:15:55.546Z,29.76
2019-04-16T10:16:52.996Z,29.76
2019-04-16T10:17:53.059Z,30.13
2019-04-16T10:18:53.082Z,29.37
2019-04-16T10:19:53.148Z,29.15
2019-04-16T10:21:54.214Z,28.61
2019-04-16T10:22:53.262Z,28.09
2019-04-16T10:24:53.351Z,28.71
2019-04-16T10:25:53.398Z,28.83
2019-04-16T10:34:29.452Z,30.45
2019-04-16T10:36:29.546Z,29.79
2019-04-16T10:37:30.308Z,28.71
2019-04-16T10:39:31.012Z,29.78
2019-04-16T10:42:29.811Z,28.83
2019-04-16T10:43:43.993Z,29.26
2019-04-16T10:44:30.136Z,28.70
2019-04-16T10:45:30.017Z,27.59
2019-04-16T10:46:29.988Z,26.69
2019-04-16T10:47:30.111Z,27.02
2019-04-16T10:48:30.108Z,28.00
2019-04-16T10:49:30.150Z,28.74
2019-04-16T10:50:31.338Z,28.59
2019-04-16T10:51:30.245Z,28.48
2019-04-16T10:52:30.265Z,27.88
2019-04-16T10:53:30.333Z,26.97
2019-04-16T10:54:33.685Z,25.55
2019-04-16T10:55:30.408Z,24.88
2019-04-16T10:56:30.447Z,24.68
2019-04-16T10:57:30.490Z,24.50
2019-04-16T10:58:30.545Z,25.52
2019-04-16T10:59:30.580Z,27.19
2019-04-16T11:00:30.650Z,28.31
2019-04-16T11:01:34.774Z,28.67
2019-04-16T11:02:30.711Z,29.06
2019-04-16T11:03:34.401Z,28.29
2019-04-16T11:04:30.850Z,27.43
2019-04-16T11:05:30.870Z,27.87
2019-04-16T11:06:31.159Z,28.17
2019-04-16T11:07:30.934Z,27.85
2019-04-16T11:09:31.031Z,26.87
2019-04-16T11:10:31.089Z,26.01
2019-04-16T11:11:31.112Z,25.69
2019-04-16T11:12:31.178Z,25.18
2019-04-16T11:13:31.205Z,24.69
2019-04-16T11:14:31.259Z,24.00
2019-04-16T11:15:31.283Z,23.83
2019-04-16T11:16:31.344Z,23.65
2019-04-16T11:17:31.371Z,23.36
2019-04-16T11:18:31.432Z,23.15
2019-04-16T11:19:31.456Z,23.80
2019-04-16T11:20:31.510Z,25.03
2019-04-16T11:21:31.540Z,27.12
2019-04-16T11:22:31.591Z,28.21
2019-04-16T11:23:31.630Z,29.33
2019-04-16T11:24:31.676Z,28.96
2019-04-16T11:25:31.710Z,29.06
2019-04-16T11:26:31.752Z,28.86
2019-04-16T11:27:31.798Z,28.00
2019-04-16T11:28:31.862Z,27.18
2019-04-16T11:29:31.883Z,26.37
2019-04-16T11:30:31.951Z,25.42
2019-04-16T11:31:31.970Z,24.76
2019-04-16T11:32:32.035Z,24.53
2019-04-16T11:33:32.077Z,23.98
2019-04-16T11:34:32.107Z,23.70
2019-04-16T11:35:32.142Z,23.58
2019-04-16T11:36:32.183Z,23.70
2019-04-16T11:37:35.982Z,23.58
2019-04-16T11:38:32.270Z,23.43
2019-04-16T11:39:32.309Z,23.27
2019-04-16T11:40:32.445Z,22.88
2019-04-16T11:41:32.424Z,23.02
2019-04-16T11:42:32.434Z,23.01
2019-04-16T11:43:32.509Z,22.62
2019-04-16T11:44:32.516Z,22.45
2019-04-16T11:45:32.569Z,22.17
2019-04-16T11:46:32.598Z,22.42
2019-04-16T11:47:34.243Z,22.75
2019-04-16T11:48:37.166Z,23.25
2019-04-16T11:49:32.718Z,23.32
2019-04-16T11:50:35.814Z,22.98
2019-04-16T11:51:32.824Z,22.62
2019-04-16T11:52:32.898Z,22.54
2019-04-16T11:53:33.002Z,22.36
2019-04-16T11:54:32.962Z,22.07
2019-04-16T11:55:33.001Z,21.86
2019-04-16T11:56:33.000Z,21.54
2019-04-16T11:57:33.990Z,21.62
2019-04-16T11:58:33.191Z,21.59
2019-04-16T11:59:33.148Z,21.67
2019-04-16T12:00:33.577Z,21.67
2019-04-16T12:01:33.198Z,21.74
2019-04-16T12:02:33.289Z,21.84
2019-04-16T12:03:36.587Z,22.03
2019-04-16T12:04:33.340Z,22.20
2019-04-16T12:05:33.362Z,22.31
2019-04-16T12:06:33.445Z,22.37
2019-04-16T12:07:33.433Z,22.42
2019-04-16T12:08:33.476Z,22.45
2019-04-16T12:09:33.537Z,22.42
2019-04-16T12:10:33.602Z,22.54
2019-04-16T12:11:33.620Z,22.58
2019-04-16T12:12:33.629Z,22.55
2019-04-16T12:13:33.712Z,22.43
2019-04-16T12:14:34.927Z,22.62
2019-04-16T12:15:33.744Z,22.45
2019-04-16T12:16:33.800Z,22.28
2019-04-16T12:17:36.351Z,22.46
2019-04-16T12:18:33.905Z,22.61
2019-04-16T12:19:33.919Z,22.60
2019-04-16T12:20:33.967Z,22.61
2019-04-16T12:21:33.982Z,22.72
2019-04-16T12:22:34.052Z,22.73
2019-04-16T12:23:34.062Z,22.73
2019-04-16T12:24:34.116Z,22.79
2019-04-16T12:25:34.157Z,22.88
2019-04-16T12:26:34.194Z,22.68
2019-04-16T12:27:34.245Z,23.16
2019-04-16T12:28:34.290Z,23.69
2019-04-16T12:29:34.287Z,23.68
2019-04-16T12:30:34.322Z,23.48
2019-04-16T12:31:34.439Z,23.42
2019-04-16T12:32:34.399Z,23.31
2019-04-16T12:33:34.445Z,23.57
2019-04-16T12:34:34.520Z,23.47
2019-04-16T12:35:35.536Z,23.68
2019-04-16T12:36:34.597Z,23.42
2019-04-16T12:37:37.395Z,23.42
2019-04-16T12:38:34.631Z,23.17
2019-04-16T12:39:35.988Z,22.92
2019-04-16T12:40:34.738Z,22.90
2019-04-16T12:41:34.746Z,23.07
2019-04-16T12:42:37.613Z,22.94
2019-04-16T12:43:34.859Z,22.76
2019-04-16T12:44:45.186Z,22.86
2019-04-16T12:45:34.943Z,22.80
2019-04-16T12:46:34.942Z,22.90
2019-04-16T12:47:34.978Z,22.67
2019-04-16T12:48:35.018Z,22.76
2019-04-16T12:49:35.055Z,22.61
2019-04-16T12:50:35.093Z,22.64
2019-04-16T12:51:39.831Z,22.58
2019-04-16T12:52:35.185Z,22.58
2019-04-16T12:53:36.298Z,22.55
2019-04-16T12:54:37.769Z,22.85
2019-04-16T12:55:35.285Z,22.85
2019-04-16T12:56:40.127Z,22.64
2019-04-16T12:57:35.396Z,22.45
2019-04-16T12:58:35.398Z,22.43
2019-04-16T12:59:35.437Z,22.33
2019-04-16T13:00:35.480Z,22.37
2019-04-16T13:01:36.468Z,22.35
2019-04-16T13:02:35.550Z,22.40
2019-04-16T13:03:35.590Z,22.37
2019-04-16T13:04:35.654Z,22.43
2019-04-16T13:05:35.901Z,22.15
2019-04-16T13:06:35.708Z,22.14
2019-04-16T13:07:38.839Z,22.14
2019-04-16T13:08:35.781Z,21.99
2019-04-16T13:09:36.145Z,21.80
2019-04-16T13:11:36.238Z,21.77
2019-04-16T13:12:35.930Z,21.69
2019-04-16T13:13:35.975Z,21.71
2019-04-16T13:14:37.740Z,21.56
2019-04-16T13:15:36.041Z,21.35
2019-04-16T13:16:36.102Z,21.43
2019-04-16T13:22:13.121Z,21.21
2019-04-16T13:23:12.147Z,21.24
2019-04-16T13:24:12.225Z,21.24
2019-04-16T13:25:54.771Z,21.35
2019-04-16T13:26:54.810Z,21.34
2019-04-16T13:28:57.980Z,21.38
2019-04-16T13:30:01.244Z,21.35
2019-04-16T13:59:22.671Z,21.83
2019-04-16T14:01:22.141Z,22.28